Aviation Digital Data Service (ADDS)

Output produced by METARs form (1729 UTC 30 October 2014)
found at http://www.aviationweather.gov/adds/metars/
 
KMIV 301654Z AUTO VRB03KT 10SM FEW065 14/06 A3001 RMK AO2 SLP160 T01440061
KMIV 301720Z 3018/3118 34008KT P6SM SCT040 
     FM310300 36002KT P6SM SKC 
     FM311500 04006KT P6SM SCT040